sensor_id;sensor_type;location;lat;lon;timestamp;P1;P2;P0
60816;PMS5003;51921;51.518;-3.188;2022-11-15T00:02:22;5;4;
60816;PMS5003;51921;51.518;-3.188;2022-11-15T00:04:48;3;3;
60816;PMS5003;51921;51.518;-3.188;2022-11-15T00:07:13;3;3;
60816;PMS5003;51921;51.518;-3.188;2022-11-15T00:09:39;3;3;
60816;PMS5003;51921;51.518;-3.188;2022-11-15T00:12:04;5;4;
60816;PMS5003;51921;51.518;-3.188;2022-11-15T00:14:29;3;2;
60816;PMS5003;51921;51.518;-3.188;2022-11-15T00:16:55;0;0;
60816;PMS5003;51921;51.518;-3.188;2022-11-15T00:19:20;2;2;
60816;PMS5003;51921;51.518;-3.188;2022-11-15T00:21:46;3;3;
60816;PMS5003;51921;51.518;-3.188;2022-11-15T00:24:11;4;2;
60816;PMS5003;51921;51.518;-3.188;2022-11-15T00:26:37;4;3;
60816;PMS5003;51921;51.518;-3.188;2022-11-15T00:29:02;3;2;
60816;PMS5003;51921;51.518;-3.188;2022-11-15T00:31:28;3;3;
60816;PMS5003;51921;51.518;-3.188;2022-11-15T00:33:53;4;4;
60816;PMS5003;51921;51.518;-3.188;2022-11-15T00:36:19;5;4;
60816;PMS5003;51921;51.518;-3.188;2022-11-15T00:38:44;2;2;
60816;PMS5003;51921;51.518;-3.188;2022-11-15T00:41:10;2;2;
60816;PMS5003;51921;51.518;-3.188;2022-11-15T00:43:35;2;2;
60816;PMS5003;51921;51.518;-3.188;2022-11-15T00:46:00;5;4;
60816;PMS5003;51921;51.518;-3.188;2022-11-15T00:48:26;2;2;
60816;PMS5003;51921;51.518;-3.188;2022-11-15T00:50:51;5;3;
60816;PMS5003;51921;51.518;-3.188;2022-11-15T00:53:16;2;1;
60816;PMS5003;51921;51.518;-3.188;2022-11-15T00:55:42;3;2;
60816;PMS5003;51921;51.518;-3.188;2022-11-15T00:58:07;5;2;
60816;PMS5003;51921;51.518;-3.188;2022-11-15T01:00:33;3;3;
60816;PMS5003;51921;51.518;-3.188;2022-11-15T01:02:59;5;2;
60816;PMS5003;51921;51.518;-3.188;2022-11-15T01:05:24;3;2;
60816;PMS5003;51921;51.518;-3.188;2022-11-15T01:07:50;3;2;
60816;PMS5003;51921;51.518;-3.188;2022-11-15T01:10:14;2;2;
60816;PMS5003;51921;51.518;-3.188;2022-11-15T01:12:40;5;4;
60816;PMS5003;51921;51.518;-3.188;2022-11-15T01:15:06;2;1;
60816;PMS5003;51921;51.518;-3.188;2022-11-15T01:17:31;2;2;
60816;PMS5003;51921;51.518;-3.188;2022-11-15T01:19:56;3;3;
60816;PMS5003;51921;51.518;-3.188;2022-11-15T01:22:22;2;2;
60816;PMS5003;51921;51.518;-3.188;2022-11-15T01:24:48;4;3;
60816;PMS5003;51921;51.518;-3.188;2022-11-15T01:27:12;2;2;
60816;PMS5003;51921;51.518;-3.188;2022-11-15T01:29:38;3;1;
60816;PMS5003;51921;51.518;-3.188;2022-11-15T01:32:03;2;2;
60816;PMS5003;51921;51.518;-3.188;2022-11-15T01:34:29;1;0;
60816;PMS5003;51921;51.518;-3.188;2022-11-15T01:36:54;3;2;
60816;PMS5003;51921;51.518;-3.188;2022-11-15T01:39:19;2;2;
60816;PMS5003;51921;51.518;-3.188;2022-11-15T01:41:45;3;3;
60816;PMS5003;51921;51.518;-3.188;2022-11-15T01:46:36;2;1;
60816;PMS5003;51921;51.518;-3.188;2022-11-15T01:49:02;4;3;
60816;PMS5003;51921;51.518;-3.188;2022-11-15T01:51:27;1;1;
60816;PMS5003;51921;51.518;-3.188;2022-11-15T01:53:53;5;4;
60816;PMS5003;51921;51.518;-3.188;2022-11-15T01:56:19;2;1;
60816;PMS5003;51921;51.518;-3.188;2022-11-15T01:58:42;5;3;
60816;PMS5003;51921;51.518;-3.188;2022-11-15T02:01:08;4;2;
60816;PMS5003;51921;51.518;-3.188;2022-11-15T02:03:35;2;1;
60816;PMS5003;51921;51.518;-3.188;2022-11-15T02:05:59;2;1;
60816;PMS5003;51921;51.518;-3.188;2022-11-15T02:08:24;4;4;
60816;PMS5003;51921;51.518;-3.188;2022-11-15T02:10:49;3;3;
60816;PMS5003;51921;51.518;-3.188;2022-11-15T02:13:15;4;2;
60816;PMS5003;51921;51.518;-3.188;2022-11-15T02:15:42;3;1;
60816;PMS5003;51921;51.518;-3.188;2022-11-15T02:18:09;2;2;
60816;PMS5003;51921;51.518;-3.188;2022-11-15T02:20:37;3;2;
60816;PMS5003;51921;51.518;-3.188;2022-11-15T02:23:02;3;2;
60816;PMS5003;51921;51.518;-3.188;2022-11-15T02:25:29;3;2;
60816;PMS5003;51921;51.518;-3.188;2022-11-15T02:27:54;2;1;
60816;PMS5003;51921;51.518;-3.188;2022-11-15T02:30:17;4;3;
60816;PMS5003;51921;51.518;-3.188;2022-11-15T02:32:40;3;1;
60816;PMS5003;51921;51.518;-3.188;2022-11-15T02:35:07;2;1;
60816;PMS5003;51921;51.518;-3.188;2022-11-15T02:37:30;3;3;
60816;PMS5003;51921;51.518;-3.188;2022-11-15T02:39:57;2;2;
60816;PMS5003;51921;51.518;-3.188;2022-11-15T02:42:21;2;2;
60816;PMS5003;51921;51.518;-3.188;2022-11-15T02:44:46;3;3;
60816;PMS5003;51921;51.518;-3.188;2022-11-15T02:47:11;1;1;
60816;PMS5003;51921;51.518;-3.188;2022-11-15T02:49:36;2;2;
60816;PMS5003;51921;51.518;-3.188;2022-11-15T02:52:02;3;2;
60816;PMS5003;51921;51.518;-3.188;2022-11-15T02:54:29;3;2;
60816;PMS5003;51921;51.518;-3.188;2022-11-15T02:56:54;5;4;
60816;PMS5003;51921;51.518;-3.188;2022-11-15T02:59:22;4;4;
60816;PMS5003;51921;51.518;-3.188;2022-11-15T03:01:46;7;4;
60816;PMS5003;51921;51.518;-3.188;2022-11-15T03:04:12;4;3;
60816;PMS5003;51921;51.518;-3.188;2022-11-15T03:06:37;4;2;
60816;PMS5003;51921;51.518;-3.188;2022-11-15T03:09:03;2;2;
60816;PMS5003;51921;51.518;-3.188;2022-11-15T03:11:26;2;1;
60816;PMS5003;51921;51.518;-3.188;2022-11-15T03:13:53;2;2;
60816;PMS5003;51921;51.518;-3.188;2022-11-15T03:16:18;4;1;
60816;PMS5003;51921;51.518;-3.188;2022-11-15T03:18:43;3;2;
60816;PMS5003;51921;51.518;-3.188;2022-11-15T03:21:08;2;1;
60816;PMS5003;51921;51.518;-3.188;2022-11-15T03:23:33;3;3;
60816;PMS5003;51921;51.518;-3.188;2022-11-15T03:25:59;2;1;
60816;PMS5003;51921;51.518;-3.188;2022-11-15T03:28:25;2;2;
60816;PMS5003;51921;51.518;-3.188;2022-11-15T03:30:49;1;1;
60816;PMS5003;51921;51.518;-3.188;2022-11-15T03:33:15;4;3;
60816;PMS5003;51921;51.518;-3.188;2022-11-15T03:35:40;3;2;
60816;PMS5003;51921;51.518;-3.188;2022-11-15T03:38:06;2;0;
60816;PMS5003;51921;51.518;-3.188;2022-11-15T03:40:33;1;0;
60816;PMS5003;51921;51.518;-3.188;2022-11-15T03:42:58;3;3;
60816;PMS5003;51921;51.518;-3.188;2022-11-15T03:45:22;1;1;
60816;PMS5003;51921;51.518;-3.188;2022-11-15T03:47:48;1;1;
60816;PMS5003;51921;51.518;-3.188;2022-11-15T03:50:13;0;0;
60816;PMS5003;51921;51.518;-3.188;2022-11-15T03:52:38;2;1;
60816;PMS5003;51921;51.518;-3.188;2022-11-15T03:55:04;1;1;
60816;PMS5003;51921;51.518;-3.188;2022-11-15T03:57:29;1;1;
60816;PMS5003;51921;51.518;-3.188;2022-11-15T03:59:54;1;1;
60816;PMS5003;51921;51.518;-3.188;2022-11-15T04:02:20;1;1;
60816;PMS5003;51921;51.518;-3.188;2022-11-15T04:04:45;1;1;
60816;PMS5003;51921;51.518;-3.188;2022-11-15T04:07:10;2;2;
60816;PMS5003;51921;51.518;-3.188;2022-11-15T04:09:36;1;0;
60816;PMS5003;51921;51.518;-3.188;2022-11-15T04:12:01;2;0;
60816;PMS5003;51921;51.518;-3.188;2022-11-15T04:14:26;1;0;
60816;PMS5003;51921;51.518;-3.188;2022-11-15T04:16:52;3;2;
60816;PMS5003;51921;51.518;-3.188;2022-11-15T04:19:17;1;1;
60816;PMS5003;51921;51.518;-3.188;2022-11-15T04:21:43;3;2;
60816;PMS5003;51921;51.518;-3.188;2022-11-15T04:24:08;2;2;
60816;PMS5003;51921;51.518;-3.188;2022-11-15T04:26:34;2;2;
60816;PMS5003;51921;51.518;-3.188;2022-11-15T04:28:59;1;1;
60816;PMS5003;51921;51.518;-3.188;2022-11-15T04:31:25;2;2;
60816;PMS5003;51921;51.518;-3.188;2022-11-15T04:33:50;2;2;
60816;PMS5003;51921;51.518;-3.188;2022-11-15T04:36:16;1;1;
60816;PMS5003;51921;51.518;-3.188;2022-11-15T04:38:41;0;0;
60816;PMS5003;51921;51.518;-3.188;2022-11-15T04:41:07;0;0;
60816;PMS5003;51921;51.518;-3.188;2022-11-15T04:43:32;2;1;
60816;PMS5003;51921;51.518;-3.188;2022-11-15T04:45:57;3;1;
60816;PMS5003;51921;51.518;-3.188;2022-11-15T04:48:23;1;1;
60816;PMS5003;51921;51.518;-3.188;2022-11-15T04:50:48;2;2;
60816;PMS5003;51921;51.518;-3.188;2022-11-15T04:53:14;3;2;
60816;PMS5003;51921;51.518;-3.188;2022-11-15T04:55:39;4;2;
60816;PMS5003;51921;51.518;-3.188;2022-11-15T04:58:04;0;0;
60816;PMS5003;51921;51.518;-3.188;2022-11-15T05:00:30;3;2;
60816;PMS5003;51921;51.518;-3.188;2022-11-15T05:02:55;1;1;
60816;PMS5003;51921;51.518;-3.188;2022-11-15T05:05:21;1;1;
60816;PMS5003;51921;51.518;-3.188;2022-11-15T05:07:46;2;1;
60816;PMS5003;51921;51.518;-3.188;2022-11-15T05:10:12;2;1;
60816;PMS5003;51921;51.518;-3.188;2022-11-15T05:12:37;3;2;
60816;PMS5003;51921;51.518;-3.188;2022-11-15T05:15:03;1;1;
60816;PMS5003;51921;51.518;-3.188;2022-11-15T05:17:28;2;1;
60816;PMS5003;51921;51.518;-3.188;2022-11-15T05:19:54;0;0;
60816;PMS5003;51921;51.518;-3.188;2022-11-15T05:22:19;3;2;
60816;PMS5003;51921;51.518;-3.188;2022-11-15T05:24:45;1;1;
60816;PMS5003;51921;51.518;-3.188;2022-11-15T05:27:10;1;1;
60816;PMS5003;51921;51.518;-3.188;2022-11-15T05:29:36;0;0;
60816;PMS5003;51921;51.518;-3.188;2022-11-15T05:32:01;1;1;
60816;PMS5003;51921;51.518;-3.188;2022-11-15T05:34:26;3;2;
60816;PMS5003;51921;51.518;-3.188;2022-11-15T05:36:52;4;2;
60816;PMS5003;51921;51.518;-3.188;2022-11-15T05:39:17;1;1;
60816;PMS5003;51921;51.518;-3.188;2022-11-15T05:41:44;2;2;
60816;PMS5003;51921;51.518;-3.188;2022-11-15T05:44:09;1;1;
60816;PMS5003;51921;51.518;-3.188;2022-11-15T05:46:34;4;3;
60816;PMS5003;51921;51.518;-3.188;2022-11-15T05:48:59;2;1;
60816;PMS5003;51921;51.518;-3.188;2022-11-15T05:51:24;0;0;
60816;PMS5003;51921;51.518;-3.188;2022-11-15T05:53:50;2;2;
60816;PMS5003;51921;51.518;-3.188;2022-11-15T05:56:16;3;2;
60816;PMS5003;51921;51.518;-3.188;2022-11-15T05:58:41;3;3;
60816;PMS5003;51921;51.518;-3.188;2022-11-15T06:01:06;1;0;
60816;PMS5003;51921;51.518;-3.188;2022-11-15T06:03:32;2;1;
60816;PMS5003;51921;51.518;-3.188;2022-11-15T06:05:57;3;2;
60816;PMS5003;51921;51.518;-3.188;2022-11-15T06:08:22;1;1;
60816;PMS5003;51921;51.518;-3.188;2022-11-15T06:10:48;2;1;
60816;PMS5003;51921;51.518;-3.188;2022-11-15T06:13:13;0;0;
60816;PMS5003;51921;51.518;-3.188;2022-11-15T06:15:38;3;2;
60816;PMS5003;51921;51.518;-3.188;2022-11-15T06:18:04;1;1;
60816;PMS5003;51921;51.518;-3.188;2022-11-15T06:20:29;0;0;
60816;PMS5003;51921;51.518;-3.188;2022-11-15T06:22:56;4;4;
60816;PMS5003;51921;51.518;-3.188;2022-11-15T06:25:20;3;3;
60816;PMS5003;51921;51.518;-3.188;2022-11-15T06:30:11;4;3;
60816;PMS5003;51921;51.518;-3.188;2022-11-15T06:32:36;2;2;
60816;PMS5003;51921;51.518;-3.188;2022-11-15T06:35:02;2;1;
60816;PMS5003;51921;51.518;-3.188;2022-11-15T06:37:27;0;0;
60816;PMS5003;51921;51.518;-3.188;2022-11-15T06:39:53;2;1;
60816;PMS5003;51921;51.518;-3.188;2022-11-15T06:42:18;2;0;
60816;PMS5003;51921;51.518;-3.188;2022-11-15T06:44:44;2;2;
60816;PMS5003;51921;51.518;-3.188;2022-11-15T06:47:09;0;0;
60816;PMS5003;51921;51.518;-3.188;2022-11-15T06:49:34;1;1;
60816;PMS5003;51921;51.518;-3.188;2022-11-15T06:52:00;2;2;
60816;PMS5003;51921;51.518;-3.188;2022-11-15T06:54:25;2;1;
60816;PMS5003;51921;51.518;-3.188;2022-11-15T06:56:51;1;1;
60816;PMS5003;51921;51.518;-3.188;2022-11-15T06:59:16;2;1;
60816;PMS5003;51921;51.518;-3.188;2022-11-15T07:01:42;2;1;
60816;PMS5003;51921;51.518;-3.188;2022-11-15T07:04:07;3;1;
60816;PMS5003;51921;51.518;-3.188;2022-11-15T07:06:32;1;0;
60816;PMS5003;51921;51.518;-3.188;2022-11-15T07:08:58;2;1;
60816;PMS5003;51921;51.518;-3.188;2022-11-15T07:11:23;2;2;
60816;PMS5003;51921;51.518;-3.188;2022-11-15T07:13:49;0;0;
60816;PMS5003;51921;51.518;-3.188;2022-11-15T07:16:14;0;0;
60816;PMS5003;51921;51.518;-3.188;2022-11-15T07:18:40;0;0;
60816;PMS5003;51921;51.518;-3.188;2022-11-15T07:21:06;1;0;
60816;PMS5003;51921;51.518;-3.188;2022-11-15T07:23:31;0;0;
60816;PMS5003;51921;51.518;-3.188;2022-11-15T07:25:56;0;0;
60816;PMS5003;51921;51.518;-3.188;2022-11-15T07:28:21;0;0;
60816;PMS5003;51921;51.518;-3.188;2022-11-15T07:30:47;0;0;
60816;PMS5003;51921;51.518;-3.188;2022-11-15T07:33:13;0;0;
60816;PMS5003;51921;51.518;-3.188;2022-11-15T07:35:38;0;0;
60816;PMS5003;51921;51.518;-3.188;2022-11-15T07:38:03;0;0;
60816;PMS5003;51921;51.518;-3.188;2022-11-15T07:40:30;0;0;
60816;PMS5003;51921;51.518;-3.188;2022-11-15T07:42:58;1;1;
60816;PMS5003;51921;51.518;-3.188;2022-11-15T07:45:20;2;1;
60816;PMS5003;51921;51.518;-3.188;2022-11-15T07:47:45;0;0;
60816;PMS5003;51921;51.518;-3.188;2022-11-15T07:50:11;2;2;
60816;PMS5003;51921;51.518;-3.188;2022-11-15T07:52:36;2;2;
60816;PMS5003;51921;51.518;-3.188;2022-11-15T07:55:02;2;1;
60816;PMS5003;51921;51.518;-3.188;2022-11-15T07:57:27;1;1;
60816;PMS5003;51921;51.518;-3.188;2022-11-15T07:59:53;1;1;
60816;PMS5003;51921;51.518;-3.188;2022-11-15T08:02:18;1;1;
60816;PMS5003;51921;51.518;-3.188;2022-11-15T08:04:44;1;1;
60816;PMS5003;51921;51.518;-3.188;2022-11-15T08:07:09;0;0;
60816;PMS5003;51921;51.518;-3.188;2022-11-15T08:09:35;3;3;
60816;PMS5003;51921;51.518;-3.188;2022-11-15T08:12:00;9;9;
60816;PMS5003;51921;51.518;-3.188;2022-11-15T08:14:25;11;11;
60816;PMS5003;51921;51.518;-3.188;2022-11-15T08:16:51;12;12;
60816;PMS5003;51921;51.518;-3.188;2022-11-15T08:19:16;17;17;
60816;PMS5003;51921;51.518;-3.188;2022-11-15T08:21:41;20;20;
60816;PMS5003;51921;51.518;-3.188;2022-11-15T08:24:08;32;31;
60816;PMS5003;51921;51.518;-3.188;2022-11-15T08:26:32;31;30;
60816;PMS5003;51921;51.518;-3.188;2022-11-15T08:28:57;31;29;
60816;PMS5003;51921;51.518;-3.188;2022-11-15T08:31:23;25;24;
60816;PMS5003;51921;51.518;-3.188;2022-11-15T08:33:49;25;22;
60816;PMS5003;51921;51.518;-3.188;2022-11-15T08:36:16;24;21;
60816;PMS5003;51921;51.518;-3.188;2022-11-15T08:38:40;21;19;
60816;PMS5003;51921;51.518;-3.188;2022-11-15T08:41:06;25;22;
60816;PMS5003;51921;51.518;-3.188;2022-11-15T08:43:31;20;18;
60816;PMS5003;51921;51.518;-3.188;2022-11-15T08:45:56;13;13;
60816;PMS5003;51921;51.518;-3.188;2022-11-15T08:48:22;10;9;
60816;PMS5003;51921;51.518;-3.188;2022-11-15T08:50:47;10;8;
60816;PMS5003;51921;51.518;-3.188;2022-11-15T08:53:12;6;5;
60816;PMS5003;51921;51.518;-3.188;2022-11-15T08:55:40;2;2;
60816;PMS5003;51921;51.518;-3.188;2022-11-15T08:58:03;2;2;
60816;PMS5003;51921;51.518;-3.188;2022-11-15T09:00:29;1;1;
60816;PMS5003;51921;51.518;-3.188;2022-11-15T09:02:54;2;2;
60816;PMS5003;51921;51.518;-3.188;2022-11-15T09:05:20;4;3;
60816;PMS5003;51921;51.518;-3.188;2022-11-15T09:07:46;0;0;
60816;PMS5003;51921;51.518;-3.188;2022-11-15T09:10:11;0;0;
60816;PMS5003;51921;51.518;-3.188;2022-11-15T09:12:36;2;2;
60816;PMS5003;51921;51.518;-3.188;2022-11-15T09:15:02;3;3;
60816;PMS5003;51921;51.518;-3.188;2022-11-15T09:17:27;3;2;
60816;PMS5003;51921;51.518;-3.188;2022-11-15T09:19:52;2;2;
60816;PMS5003;51921;51.518;-3.188;2022-11-15T09:22:18;1;1;
60816;PMS5003;51921;51.518;-3.188;2022-11-15T09:24:44;1;1;
60816;PMS5003;51921;51.518;-3.188;2022-11-15T09:27:09;2;1;
60816;PMS5003;51921;51.518;-3.188;2022-11-15T09:29:34;0;0;
60816;PMS5003;51921;51.518;-3.188;2022-11-15T09:32:00;1;1;
60816;PMS5003;51921;51.518;-3.188;2022-11-15T09:34:25;2;0;
60816;PMS5003;51921;51.518;-3.188;2022-11-15T09:36:51;0;0;
60816;PMS5003;51921;51.518;-3.188;2022-11-15T09:39:16;1;1;
60816;PMS5003;51921;51.518;-3.188;2022-11-15T09:41:48;1;1;
60816;PMS5003;51921;51.518;-3.188;2022-11-15T09:44:11;2;1;
60816;PMS5003;51921;51.518;-3.188;2022-11-15T09:46:36;0;0;
60816;PMS5003;51921;51.518;-3.188;2022-11-15T09:48:58;1;1;
60816;PMS5003;51921;51.518;-3.188;2022-11-15T09:51:25;2;2;
60816;PMS5003;51921;51.518;-3.188;2022-11-15T09:53:51;2;2;
60816;PMS5003;51921;51.518;-3.188;2022-11-15T09:56:16;0;0;
60816;PMS5003;51921;51.518;-3.188;2022-11-15T09:58:42;1;1;
60816;PMS5003;51921;51.518;-3.188;2022-11-15T10:01:06;1;1;
60816;PMS5003;51921;51.518;-3.188;2022-11-15T10:03:33;1;1;
60816;PMS5003;51921;51.518;-3.188;2022-11-15T10:05:59;1;1;
60816;PMS5003;51921;51.518;-3.188;2022-11-15T10:08:25;1;0;
60816;PMS5003;51921;51.518;-3.188;2022-11-15T10:10:48;0;0;
60816;PMS5003;51921;51.518;-3.188;2022-11-15T10:13:13;0;0;
60816;PMS5003;51921;51.518;-3.188;2022-11-15T10:15:38;0;0;
60816;PMS5003;51921;51.518;-3.188;2022-11-15T10:18:06;1;1;
60816;PMS5003;51921;51.518;-3.188;2022-11-15T10:20:30;0;0;
60816;PMS5003;51921;51.518;-3.188;2022-11-15T10:22:56;2;2;
60816;PMS5003;51921;51.518;-3.188;2022-11-15T10:25:21;1;1;
60816;PMS5003;51921;51.518;-3.188;2022-11-15T10:27:47;2;2;
60816;PMS5003;51921;51.518;-3.188;2022-11-15T10:30:12;1;1;
60816;PMS5003;51921;51.518;-3.188;2022-11-15T10:32:37;1;1;
60816;PMS5003;51921;51.518;-3.188;2022-11-15T10:37:28;3;2;
60816;PMS5003;51921;51.518;-3.188;2022-11-15T10:42:25;1;1;
60816;PMS5003;51921;51.518;-3.188;2022-11-15T10:44:44;2;2;
60816;PMS5003;51921;51.518;-3.188;2022-11-15T10:49:35;1;1;
60816;PMS5003;51921;51.518;-3.188;2022-11-15T10:52:02;3;2;
60816;PMS5003;51921;51.518;-3.188;2022-11-15T10:54:27;2;2;
60816;PMS5003;51921;51.518;-3.188;2022-11-15T10:56:51;3;3;
60816;PMS5003;51921;51.518;-3.188;2022-11-15T10:59:18;4;4;
60816;PMS5003;51921;51.518;-3.188;2022-11-15T11:01:46;5;4;
60816;PMS5003;51921;51.518;-3.188;2022-11-15T11:04:08;5;5;
60816;PMS5003;51921;51.518;-3.188;2022-11-15T11:06:45;4;4;
60816;PMS5003;51921;51.518;-3.188;2022-11-15T11:08:59;7;6;
60816;PMS5003;51921;51.518;-3.188;2022-11-15T11:11:24;7;5;
60816;PMS5003;51921;51.518;-3.188;2022-11-15T11:13:49;4;4;
60816;PMS5003;51921;51.518;-3.188;2022-11-15T11:18:42;4;3;
60816;PMS5003;51921;51.518;-3.188;2022-11-15T11:21:08;3;3;
60816;PMS5003;51921;51.518;-3.188;2022-11-15T11:23:36;3;2;
60816;PMS5003;51921;51.518;-3.188;2022-11-15T11:25:59;1;1;
60816;PMS5003;51921;51.518;-3.188;2022-11-15T11:28:26;3;2;
60816;PMS5003;51921;51.518;-3.188;2022-11-15T11:30:49;2;2;
60816;PMS5003;51921;51.518;-3.188;2022-11-15T11:33:14;2;2;
60816;PMS5003;51921;51.518;-3.188;2022-11-15T11:35:41;2;2;
60816;PMS5003;51921;51.518;-3.188;2022-11-15T11:38:09;1;1;
60816;PMS5003;51921;51.518;-3.188;2022-11-15T11:40:30;2;2;
60816;PMS5003;51921;51.518;-3.188;2022-11-15T11:42:55;3;2;
60816;PMS5003;51921;51.518;-3.188;2022-11-15T11:45:24;2;2;
60816;PMS5003;51921;51.518;-3.188;2022-11-15T11:47:46;2;2;
60816;PMS5003;51921;51.518;-3.188;2022-11-15T11:50:13;4;2;
60816;PMS5003;51921;51.518;-3.188;2022-11-15T11:52:38;1;1;
60816;PMS5003;51921;51.518;-3.188;2022-11-15T11:55:03;2;0;
60816;PMS5003;51921;51.518;-3.188;2022-11-15T11:57:30;1;0;
60816;PMS5003;51921;51.518;-3.188;2022-11-15T11:59:55;1;1;
60816;PMS5003;51921;51.518;-3.188;2022-11-15T12:02:21;2;2;
60816;PMS5003;51921;51.518;-3.188;2022-11-15T12:04:44;1;1;
60816;PMS5003;51921;51.518;-3.188;2022-11-15T12:07:11;1;1;
60816;PMS5003;51921;51.518;-3.188;2022-11-15T12:09:35;3;2;
60816;PMS5003;51921;51.518;-3.188;2022-11-15T12:12:01;0;0;
60816;PMS5003;51921;51.518;-3.188;2022-11-15T12:14:29;2;2;
60816;PMS5003;51921;51.518;-3.188;2022-11-15T12:16:51;3;2;
60816;PMS5003;51921;51.518;-3.188;2022-11-15T12:19:16;2;2;
60816;PMS5003;51921;51.518;-3.188;2022-11-15T12:21:43;3;3;
60816;PMS5003;51921;51.518;-3.188;2022-11-15T12:24:08;5;5;
60816;PMS5003;51921;51.518;-3.188;2022-11-15T12:26:33;3;2;
60816;PMS5003;51921;51.518;-3.188;2022-11-15T12:28:58;3;2;
60816;PMS5003;51921;51.518;-3.188;2022-11-15T12:31:24;7;6;
60816;PMS5003;51921;51.518;-3.188;2022-11-15T12:33:49;7;5;
60816;PMS5003;51921;51.518;-3.188;2022-11-15T12:41:12;8;8;
60816;PMS5003;51921;51.518;-3.188;2022-11-15T12:43:36;10;8;
60816;PMS5003;51921;51.518;-3.188;2022-11-15T12:45:56;8;8;
60816;PMS5003;51921;51.518;-3.188;2022-11-15T12:50:52;8;7;
60816;PMS5003;51921;51.518;-3.188;2022-11-15T12:55:37;9;7;
60816;PMS5003;51921;51.518;-3.188;2022-11-15T13:15:07;7;6;
60816;PMS5003;51921;51.518;-3.188;2022-11-15T13:17:31;7;7;
60816;PMS5003;51921;51.518;-3.188;2022-11-15T13:19:53;6;6;
60816;PMS5003;51921;51.518;-3.188;2022-11-15T13:22:17;9;7;
60816;PMS5003;51921;51.518;-3.188;2022-11-15T13:24:43;8;8;
60816;PMS5003;51921;51.518;-3.188;2022-11-15T13:27:10;8;7;
60816;PMS5003;51921;51.518;-3.188;2022-11-15T13:29:33;8;8;
60816;PMS5003;51921;51.518;-3.188;2022-11-15T13:31:59;10;8;
60816;PMS5003;51921;51.518;-3.188;2022-11-15T13:34:26;5;5;
60816;PMS5003;51921;51.518;-3.188;2022-11-15T13:36:50;6;5;
60816;PMS5003;51921;51.518;-3.188;2022-11-15T13:41:45;4;4;
60816;PMS5003;51921;51.518;-3.188;2022-11-15T13:46:32;4;4;
60816;PMS5003;51921;51.518;-3.188;2022-11-15T13:48:57;6;5;
60816;PMS5003;51921;51.518;-3.188;2022-11-15T13:51:25;4;3;
60816;PMS5003;51921;51.518;-3.188;2022-11-15T13:53:48;7;5;
60816;PMS5003;51921;51.518;-3.188;2022-11-15T13:56:13;6;4;
60816;PMS5003;51921;51.518;-3.188;2022-11-15T13:58:39;8;7;
60816;PMS5003;51921;51.518;-3.188;2022-11-15T14:01:04;8;7;
60816;PMS5003;51921;51.518;-3.188;2022-11-15T14:03:30;5;5;
60816;PMS5003;51921;51.518;-3.188;2022-11-15T14:06:02;3;3;
60816;PMS5003;51921;51.518;-3.188;2022-11-15T14:08:21;4;3;
60816;PMS5003;51921;51.518;-3.188;2022-11-15T14:10:46;4;4;
60816;PMS5003;51921;51.518;-3.188;2022-11-15T14:13:26;3;3;
60816;PMS5003;51921;51.518;-3.188;2022-11-15T14:15:37;3;3;
60816;PMS5003;51921;51.518;-3.188;2022-11-15T14:18:02;4;4;
60816;PMS5003;51921;51.518;-3.188;2022-11-15T14:20:29;4;3;
60816;PMS5003;51921;51.518;-3.188;2022-11-15T14:22:53;3;3;
60816;PMS5003;51921;51.518;-3.188;2022-11-15T14:25:19;3;2;
60816;PMS5003;51921;51.518;-3.188;2022-11-15T14:27:44;1;1;
60816;PMS5003;51921;51.518;-3.188;2022-11-15T14:30:13;1;1;
60816;PMS5003;51921;51.518;-3.188;2022-11-15T14:32:37;3;2;
60816;PMS5003;51921;51.518;-3.188;2022-11-15T14:35:00;1;1;
60816;PMS5003;51921;51.518;-3.188;2022-11-15T14:37:31;2;2;
60816;PMS5003;51921;51.518;-3.188;2022-11-15T14:39:51;3;3;
60816;PMS5003;51921;51.518;-3.188;2022-11-15T14:42:16;5;3;
60816;PMS5003;51921;51.518;-3.188;2022-11-15T14:44:41;3;2;
60816;PMS5003;51921;51.518;-3.188;2022-11-15T14:47:07;3;2;
60816;PMS5003;51921;51.518;-3.188;2022-11-15T14:49:32;2;2;
60816;PMS5003;51921;51.518;-3.188;2022-11-15T14:51:58;2;1;
60816;PMS5003;51921;51.518;-3.188;2022-11-15T14:54:23;3;3;
60816;PMS5003;51921;51.518;-3.188;2022-11-15T14:56:48;1;1;
60816;PMS5003;51921;51.518;-3.188;2022-11-15T14:59:13;3;2;
60816;PMS5003;51921;51.518;-3.188;2022-11-15T15:01:39;2;2;
60816;PMS5003;51921;51.518;-3.188;2022-11-15T15:04:04;2;0;
60816;PMS5003;51921;51.518;-3.188;2022-11-15T15:06:30;4;2;
60816;PMS5003;51921;51.518;-3.188;2022-11-15T15:08:55;3;2;
60816;PMS5003;51921;51.518;-3.188;2022-11-15T15:11:21;5;4;
60816;PMS5003;51921;51.518;-3.188;2022-11-15T15:13:46;3;3;
60816;PMS5003;51921;51.518;-3.188;2022-11-15T15:16:11;6;5;
60816;PMS5003;51921;51.518;-3.188;2022-11-15T15:18:37;5;4;
60816;PMS5003;51921;51.518;-3.188;2022-11-15T15:21:04;4;4;
60816;PMS5003;51921;51.518;-3.188;2022-11-15T15:23:28;4;3;
60816;PMS5003;51921;51.518;-3.188;2022-11-15T15:25:53;7;4;
60816;PMS5003;51921;51.518;-3.188;2022-11-15T15:28:19;4;4;
60816;PMS5003;51921;51.518;-3.188;2022-11-15T15:30:44;6;4;
60816;PMS5003;51921;51.518;-3.188;2022-11-15T15:33:10;7;6;
60816;PMS5003;51921;51.518;-3.188;2022-11-15T15:35:35;9;6;
60816;PMS5003;51921;51.518;-3.188;2022-11-15T15:38:01;6;5;
60816;PMS5003;51921;51.518;-3.188;2022-11-15T15:40:27;8;6;
60816;PMS5003;51921;51.518;-3.188;2022-11-15T15:42:52;6;6;
60816;PMS5003;51921;51.518;-3.188;2022-11-15T15:45:17;5;4;
60816;PMS5003;51921;51.518;-3.188;2022-11-15T15:47:43;4;4;
60816;PMS5003;51921;51.518;-3.188;2022-11-15T15:50:14;8;6;
60816;PMS5003;51921;51.518;-3.188;2022-11-15T15:52:34;8;5;
60816;PMS5003;51921;51.518;-3.188;2022-11-15T15:54:59;6;5;
60816;PMS5003;51921;51.518;-3.188;2022-11-15T15:57:25;5;3;
60816;PMS5003;51921;51.518;-3.188;2022-11-15T15:59:50;9;9;
60816;PMS5003;51921;51.518;-3.188;2022-11-15T16:02:15;8;7;
60816;PMS5003;51921;51.518;-3.188;2022-11-15T16:04:41;8;7;
60816;PMS5003;51921;51.518;-3.188;2022-11-15T16:07:07;9;7;
60816;PMS5003;51921;51.518;-3.188;2022-11-15T16:09:31;7;7;
60816;PMS5003;51921;51.518;-3.188;2022-11-15T16:11:57;8;6;
60816;PMS5003;51921;51.518;-3.188;2022-11-15T16:14:22;7;7;
60816;PMS5003;51921;51.518;-3.188;2022-11-15T16:16:47;13;11;
60816;PMS5003;51921;51.518;-3.188;2022-11-15T16:19:12;8;8;
60816;PMS5003;51921;51.518;-3.188;2022-11-15T16:21:38;10;9;
60816;PMS5003;51921;51.518;-3.188;2022-11-15T16:24:03;8;6;
60816;PMS5003;51921;51.518;-3.188;2022-11-15T16:26:29;7;6;
60816;PMS5003;51921;51.518;-3.188;2022-11-15T16:28:54;9;7;
60816;PMS5003;51921;51.518;-3.188;2022-11-15T16:31:20;10;10;
60816;PMS5003;51921;51.518;-3.188;2022-11-15T16:33:45;8;7;
60816;PMS5003;51921;51.518;-3.188;2022-11-15T16:36:21;8;7;
60816;PMS5003;51921;51.518;-3.188;2022-11-15T16:38:36;7;7;
60816;PMS5003;51921;51.518;-3.188;2022-11-15T16:41:02;8;7;
60816;PMS5003;51921;51.518;-3.188;2022-11-15T16:43:27;6;6;
60816;PMS5003;51921;51.518;-3.188;2022-11-15T16:45:52;7;7;
60816;PMS5003;51921;51.518;-3.188;2022-11-15T16:48:20;5;5;
60816;PMS5003;51921;51.518;-3.188;2022-11-15T16:50:43;5;5;
60816;PMS5003;51921;51.518;-3.188;2022-11-15T16:53:09;7;7;
60816;PMS5003;51921;51.518;-3.188;2022-11-15T16:55:34;6;5;
60816;PMS5003;51921;51.518;-3.188;2022-11-15T16:58:00;4;4;
60816;PMS5003;51921;51.518;-3.188;2022-11-15T17:00:25;6;5;
60816;PMS5003;51921;51.518;-3.188;2022-11-15T17:02:51;5;5;
60816;PMS5003;51921;51.518;-3.188;2022-11-15T17:05:17;6;6;
60816;PMS5003;51921;51.518;-3.188;2022-11-15T17:07:42;4;3;